Time;durP1;ratioP1;P1;durP2;ratioP2;P2;SDS_P1;SDS_P2;PMS_P1;PMS_P2;Temp;Humidity;BMP_temperature;BMP_pressure;BME280_temperature;BME280_humidity;BME280_pressure;Samples;Min_cycle;Max_cycle;Signal;HPM_P1;HPM_P2
2021/04/07 00:00:32;;;;;;;12.23;9.65;;;;;;;;;;4994417;28;20454;-74
2021/04/07 00:02:58;;;;;;;9.85;7.40;;;;;;;;;;4994896;28;20204;-74
2021/04/07 00:05:26;;;;;;;11.57;7.43;;;;;;;;;;4995505;28;20277;-74
2021/04/07 00:07:54;;;;;;;12.75;7.75;;;;;;;;;;4994165;28;20190;-74
2021/04/07 00:10:21;;;;;;;8.60;7.65;;;;;;;;;;4995623;28;20195;-74
2021/04/07 00:12:47;;;;;;;15.95;9.65;;;;;;;;;;4994359;28;20212;-74
2021/04/07 00:15:14;;;;;;;12.98;8.60;;;;;;;;;;4994271;28;20203;-74
2021/04/07 00:17:41;;;;;;;14.57;7.38;;;;;;;;;;4994255;28;20197;-74
2021/04/07 00:20:11;;;;;;;10.65;7.85;;;;;;;;;;4995152;28;20298;-74
2021/04/07 00:22:37;;;;;;;11.93;7.60;;;;;;;;;;4993329;28;20188;-74
2021/04/07 00:25:03;;;;;;;12.63;7.47;;;;;;;;;;4995212;28;20249;-74
2021/04/07 00:27:31;;;;;;;10.40;8.65;;;;;;;;;;4992962;28;20220;-74
2021/04/07 00:29:56;;;;;;;11.15;7.68;;;;;;;;;;4989589;28;20239;-74
2021/04/07 00:32:22;;;;;;;9.03;6.73;;;;;;;;;;4992599;28;20215;-74
2021/04/07 00:34:48;;;;;;;8.63;6.93;;;;;;;;;;4987828;28;20446;-74
2021/04/07 00:37:14;;;;;;;12.23;6.40;;;;;;;;;;4994527;28;20437;-74
2021/04/07 00:39:41;;;;;;;10.75;7.32;;;;;;;;;;4994393;28;20458;-74
2021/04/07 00:42:07;;;;;;;8.45;6.30;;;;;;;;;;4993986;28;20314;-74
2021/04/07 00:44:34;;;;;;;9.75;5.75;;;;;;;;;;4994541;28;20184;-74
2021/04/07 00:47:00;;;;;;;11.05;6.00;;;;;;;;;;4992960;28;20626;-74
2021/04/07 00:49:26;;;;;;;8.27;6.22;;;;;;;;;;4987230;28;20231;-74
2021/04/07 00:51:52;;;;;;;8.23;6.20;;;;;;;;;;4994168;28;20689;-74
2021/04/07 00:54:18;;;;;;;7.60;5.70;;;;;;;;;;4995232;28;20699;-74
2021/04/07 00:56:44;;;;;;;9.02;5.88;;;;;;;;;;4994154;28;20579;-74
2021/04/07 00:59:12;;;;;;;14.10;7.00;;;;;;;;;;4993836;28;20286;-74
2021/04/07 01:01:38;;;;;;;6.63;5.30;;;;;;;;;;4994195;28;20184;-74
2021/04/07 01:04:04;;;;;;;12.30;5.90;;;;;;;;;;4992267;28;20191;-74
2021/04/07 01:06:30;;;;;;;8.13;5.45;;;;;;;;;;4993670;28;20474;-74
2021/04/07 01:08:57;;;;;;;5.83;5.33;;;;;;;;;;4990945;28;20570;-74
2021/04/07 01:11:22;;;;;;;7.70;5.15;;;;;;;;;;4993708;28;20446;-73
2021/04/07 01:13:48;;;;;;;8.00;5.43;;;;;;;;;;4993736;28;20191;-75
2021/04/07 01:16:14;;;;;;;11.13;5.97;;;;;;;;;;4993402;28;20793;-75
2021/04/07 01:18:40;;;;;;;5.93;3.90;;;;;;;;;;4993673;28;21008;-74
2021/04/07 01:21:06;;;;;;;7.43;5.90;;;;;;;;;;4997816;22;20546;-74
2021/04/07 01:23:33;;;;;;;8.45;5.43;;;;;;;;;;4960557;28;20432;-74
2021/04/07 01:25:59;;;;;;;7.47;4.78;;;;;;;;;;4952156;28;20672;-75
2021/04/07 01:28:25;;;;;;;6.13;4.88;;;;;;;;;;4963602;28;20675;-75
2021/04/07 01:30:51;;;;;;;8.07;5.50;;;;;;;;;;4955747;28;20204;-75
2021/04/07 01:33:27;;;;;;;8.50;5.70;;;;;;;;;;4959497;28;20216;-74
2021/04/07 01:35:53;;;;;;;11.73;5.68;;;;;;;;;;4956057;28;20417;-74
2021/04/07 01:38:20;;;;;;;7.20;5.93;;;;;;;;;;4957716;28;20245;-75
2021/04/07 01:40:46;;;;;;;4.75;3.90;;;;;;;;;;4954639;28;20256;-75
2021/04/07 01:43:14;;;;;;;5.15;4.05;;;;;;;;;;4962304;28;20181;-75
2021/04/07 01:45:40;;;;;;;5.45;4.93;;;;;;;;;;4955041;28;20215;-75
2021/04/07 01:48:06;;;;;;;10.80;5.03;;;;;;;;;;4962680;28;20647;-75
2021/04/07 01:50:33;;;;;;;6.90;5.35;;;;;;;;;;4966919;28;20792;-75
2021/04/07 01:52:59;;;;;;;8.35;4.35;;;;;;;;;;4957577;28;20222;-74
2021/04/07 01:55:25;;;;;;;9.25;4.63;;;;;;;;;;4962198;28;20551;-75
2021/04/07 01:57:51;;;;;;;7.80;4.82;;;;;;;;;;4967107;28;20184;-75
2021/04/07 02:00:17;;;;;;;5.50;3.73;;;;;;;;;;4966319;28;20214;-74
2021/04/07 02:02:43;;;;;;;8.15;4.18;;;;;;;;;;4965736;28;20530;-75
2021/04/07 02:05:10;;;;;;;4.05;3.72;;;;;;;;;;4965843;28;20205;-74
2021/04/07 02:07:36;;;;;;;7.78;5.15;;;;;;;;;;4954202;28;20817;-74
2021/04/07 02:10:03;;;;;;;5.35;3.95;;;;;;;;;;4957248;28;20211;-75
2021/04/07 02:12:29;;;;;;;4.95;4.18;;;;;;;;;;4964200;28;20185;-75
2021/04/07 02:14:55;;;;;;;4.57;3.80;;;;;;;;;;4956221;28;20648;-74
2021/04/07 02:17:21;;;;;;;6.25;5.38;;;;;;;;;;4962940;28;20412;-74
2021/04/07 02:19:47;;;;;;;7.50;4.77;;;;;;;;;;4952227;28;20245;-74
2021/04/07 02:22:14;;;;;;;6.67;5.40;;;;;;;;;;4946498;28;20437;-74
2021/04/07 02:24:41;;;;;;;6.40;4.95;;;;;;;;;;4962875;28;20916;-75
2021/04/07 02:27:18;;;;;;;7.55;5.65;;;;;;;;;;4954143;28;20239;-75
2021/04/07 02:29:46;;;;;;;9.18;4.43;;;;;;;;;;4956535;28;20184;-75
2021/04/07 02:32:12;;;;;;;6.97;4.85;;;;;;;;;;4957070;28;20208;-75
2021/04/07 02:34:38;;;;;;;5.63;5.10;;;;;;;;;;4963937;28;20185;-75
2021/04/07 02:37:05;;;;;;;5.32;4.70;;;;;;;;;;4953651;28;20189;-75
2021/04/07 02:39:31;;;;;;;6.28;4.75;;;;;;;;;;4954383;28;20215;-75
2021/04/07 02:41:57;;;;;;;9.70;5.35;;;;;;;;;;4952703;28;20209;-75
2021/04/07 02:44:23;;;;;;;10.87;6.87;;;;;;;;;;4957279;28;20615;-74
2021/04/07 02:46:49;;;;;;;6.07;5.50;;;;;;;;;;4963813;28;20861;-75
2021/04/07 02:49:15;;;;;;;6.85;6.15;;;;;;;;;;4960752;28;20439;-74
2021/04/07 02:51:41;;;;;;;8.10;6.15;;;;;;;;;;4957771;28;20671;-75
2021/04/07 02:54:07;;;;;;;6.32;5.63;;;;;;;;;;4954176;28;20212;-75
2021/04/07 02:56:33;;;;;;;7.97;6.25;;;;;;;;;;4960394;28;20823;-75
2021/04/07 02:59:00;;;;;;;6.07;5.50;;;;;;;;;;4956039;28;20185;-75
2021/04/07 03:01:26;;;;;;;6.25;5.65;;;;;;;;;;4961480;28;20211;-75
2021/04/07 03:03:52;;;;;;;11.90;7.05;;;;;;;;;;4966566;28;20207;-75
2021/04/07 03:06:19;;;;;;;7.00;5.88;;;;;;;;;;4961136;28;20244;-75
2021/04/07 03:08:45;;;;;;;11.63;6.40;;;;;;;;;;4961365;28;20192;-75
2021/04/07 03:11:11;;;;;;;10.30;6.30;;;;;;;;;;4951829;28;20196;-74
2021/04/07 03:13:37;;;;;;;8.20;7.40;;;;;;;;;;4954983;28;20191;-74
2021/04/07 03:16:03;;;;;;;8.43;6.27;;;;;;;;;;4953135;28;20782;-75
2021/04/07 03:18:28;;;;;;;10.35;7.60;;;;;;;;;;4956911;28;20436;-75
2021/04/07 03:20:55;;;;;;;12.60;8.43;;;;;;;;;;4958502;28;20299;-75
2021/04/07 03:23:20;;;;;;;18.35;10.98;;;;;;;;;;4953668;28;20495;-75
2021/04/07 03:25:46;;;;;;;17.87;10.57;;;;;;;;;;4953139;28;20212;-75
2021/04/07 03:28:12;;;;;;;12.02;10.25;;;;;;;;;;4965193;28;20424;-74
2021/04/07 03:30:49;;;;;;;15.80;11.07;;;;;;;;;;4952784;28;20692;-74
2021/04/07 03:33:16;;;;;;;11.82;10.52;;;;;;;;;;4959715;28;20935;-75
2021/04/07 03:35:42;;;;;;;16.00;10.88;;;;;;;;;;4961062;28;20733;-74
2021/04/07 03:38:08;;;;;;;12.43;8.75;;;;;;;;;;4953235;28;20220;-75
2021/04/07 03:40:34;;;;;;;16.47;11.93;;;;;;;;;;4958698;28;20206;-75
2021/04/07 03:43:00;;;;;;;15.57;10.80;;;;;;;;;;4965181;28;20567;-74
2021/04/07 03:45:26;;;;;;;13.47;9.23;;;;;;;;;;4957723;28;20208;-75
2021/04/07 03:47:52;;;;;;;13.47;10.30;;;;;;;;;;4955545;28;20448;-74
2021/04/07 03:50:18;;;;;;;15.63;9.43;;;;;;;;;;4959199;28;20459;-74
2021/04/07 03:52:44;;;;;;;13.90;9.00;;;;;;;;;;4957694;28;20570;-74
2021/04/07 03:55:10;;;;;;;10.50;7.57;;;;;;;;;;4955462;28;20275;-74
2021/04/07 03:57:36;;;;;;;12.88;6.85;;;;;;;;;;4960537;28;20457;-74
2021/04/07 04:00:02;;;;;;;10.93;9.43;;;;;;;;;;4954556;28;20196;-74
2021/04/07 04:02:28;;;;;;;10.57;9.43;;;;;;;;;;4960546;28;20436;-74
2021/04/07 04:04:54;;;;;;;12.90;10.50;;;;;;;;;;4966141;28;20231;-74
2021/04/07 04:07:20;;;;;;;15.60;12.30;;;;;;;;;;4957755;28;20431;-74
2021/04/07 04:09:46;;;;;;;18.13;12.57;;;;;;;;;;4956906;28;20930;-74
2021/04/07 04:12:12;;;;;;;16.63;12.00;;;;;;;;;;4961886;28;20443;-74
2021/04/07 04:14:38;;;;;;;12.60;10.73;;;;;;;;;;4972108;28;20424;-74
2021/04/07 04:17:04;;;;;;;13.73;11.03;;;;;;;;;;4958975;28;20436;-74
2021/04/07 04:19:30;;;;;;;18.63;10.07;;;;;;;;;;4960470;28;20436;-74
2021/04/07 04:21:56;;;;;;;9.37;8.40;;;;;;;;;;4958243;28;20474;-74
2021/04/07 04:24:22;;;;;;;9.80;7.47;;;;;;;;;;4963437;28;20436;-74
2021/04/07 04:26:48;;;;;;;10.27;8.30;;;;;;;;;;4959910;28;20470;-74
2021/04/07 04:29:14;;;;;;;9.20;8.30;;;;;;;;;;4958845;28;20823;-74
2021/04/07 04:31:39;;;;;;;8.43;7.53;;;;;;;;;;4959307;28;20466;-74
2021/04/07 04:34:05;;;;;;;11.07;8.30;;;;;;;;;;4971564;28;20497;-74
2021/04/07 04:36:31;;;;;;;13.27;9.10;;;;;;;;;;4967795;28;20502;-74
2021/04/07 04:38:57;;;;;;;11.00;7.93;;;;;;;;;;4959520;28;20810;-74
2021/04/07 04:41:23;;;;;;;9.63;8.60;;;;;;;;;;4953832;28;20956;-74
2021/04/07 04:43:49;;;;;;;9.40;8.37;;;;;;;;;;4945637;29;20916;-74
2021/04/07 04:46:15;;;;;;;16.57;9.17;;;;;;;;;;4955821;28;20607;-72
2021/04/07 04:48:41;;;;;;;9.02;7.68;;;;;;;;;;4967113;28;20440;-74
2021/04/07 04:51:07;;;;;;;10.53;8.70;;;;;;;;;;4958066;28;20208;-73
2021/04/07 04:53:33;;;;;;;10.87;8.33;;;;;;;;;;4960600;28;20435;-73
2021/04/07 04:55:59;;;;;;;8.25;7.38;;;;;;;;;;4975450;28;20981;-73
2021/04/07 04:58:25;;;;;;;10.57;8.82;;;;;;;;;;4958703;28;20189;-73
2021/04/07 05:00:51;;;;;;;11.10;8.23;;;;;;;;;;4959470;28;20223;-73
2021/04/07 05:03:17;;;;;;;10.40;8.60;;;;;;;;;;4961033;28;20184;-73
2021/04/07 05:05:43;;;;;;;10.23;8.93;;;;;;;;;;4955213;28;20576;-73
2021/04/07 05:08:09;;;;;;;10.90;9.57;;;;;;;;;;4968101;28;20428;-73
2021/04/07 05:10:34;;;;;;;10.23;9.00;;;;;;;;;;4958875;28;20551;-73
2021/04/07 05:13:00;;;;;;;9.60;7.60;;;;;;;;;;4964871;28;20441;-73
2021/04/07 05:15:26;;;;;;;11.17;8.60;;;;;;;;;;4957349;28;20428;-73
2021/04/07 05:17:52;;;;;;;14.70;8.47;;;;;;;;;;4959774;28;20443;-73
2021/04/07 05:20:18;;;;;;;13.93;8.93;;;;;;;;;;4961656;28;20476;-73
2021/04/07 05:22:44;;;;;;;9.10;7.63;;;;;;;;;;4956458;28;20447;-72
2021/04/07 05:25:11;;;;;;;10.18;9.18;;;;;;;;;;4953519;28;20451;-72
2021/04/07 05:27:37;;;;;;;10.00;8.40;;;;;;;;;;4955976;28;20189;-72
2021/04/07 05:30:03;;;;;;;7.18;6.43;;;;;;;;;;4959743;28;20208;-72
2021/04/07 05:32:30;;;;;;;9.70;7.70;;;;;;;;;;4963662;28;20165;-72
2021/04/07 05:34:56;;;;;;;7.68;6.95;;;;;;;;;;4974973;28;20212;-72
2021/04/07 05:37:21;;;;;;;8.50;6.90;;;;;;;;;;4963719;28;20194;-72
2021/04/07 05:39:47;;;;;;;10.02;7.30;;;;;;;;;;4955498;28;20416;-72
2021/04/07 05:42:13;;;;;;;10.33;6.80;;;;;;;;;;4955290;28;20184;-72
2021/04/07 05:44:39;;;;;;;7.30;6.60;;;;;;;;;;4953863;28;20428;-72
2021/04/07 05:47:05;;;;;;;7.00;6.33;;;;;;;;;;4955459;28;20960;-72
2021/04/07 05:49:31;;;;;;;6.80;6.20;;;;;;;;;;4955249;28;20425;-72
2021/04/07 05:51:57;;;;;;;10.82;6.97;;;;;;;;;;4954639;28;20532;-72
2021/04/07 05:54:24;;;;;;;7.28;6.57;;;;;;;;;;4953576;28;20233;-72
2021/04/07 05:56:50;;;;;;;8.80;6.70;;;;;;;;;;4955266;28;20185;-72
2021/04/07 05:59:16;;;;;;;6.43;5.83;;;;;;;;;;4955142;28;20562;-72
2021/04/07 06:01:42;;;;;;;7.37;6.67;;;;;;;;;;4954637;28;20452;-72
2021/04/07 06:04:08;;;;;;;6.13;5.50;;;;;;;;;;4955030;28;20424;-72
2021/04/07 06:06:34;;;;;;;8.30;6.50;;;;;;;;;;4954736;28;20506;-72
2021/04/07 06:09:00;;;;;;;6.63;5.97;;;;;;;;;;4954176;28;20436;-72
2021/04/07 06:11:26;;;;;;;8.27;7.43;;;;;;;;;;4954397;28;20211;-73
2021/04/07 06:13:52;;;;;;;10.87;6.80;;;;;;;;;;4942726;28;20244;-73
2021/04/07 06:16:18;;;;;;;12.37;9.03;;;;;;;;;;4938426;29;20810;-72
2021/04/07 06:18:44;;;;;;;9.18;8.27;;;;;;;;;;4941613;29;20427;-72
2021/04/07 06:21:10;;;;;;;10.93;7.80;;;;;;;;;;4954500;28;20264;-72
2021/04/07 06:23:36;;;;;;;9.75;7.45;;;;;;;;;;4954469;28;20189;-72
2021/04/07 06:26:02;;;;;;;9.77;7.88;;;;;;;;;;4954584;28;20204;-73
2021/04/07 06:28:28;;;;;;;16.92;9.35;;;;;;;;;;4954292;28;20189;-73
2021/04/07 06:30:54;;;;;;;9.43;7.93;;;;;;;;;;4954403;28;20208;-73
2021/04/07 06:33:21;;;;;;;14.30;8.27;;;;;;;;;;4954263;28;20181;-73
2021/04/07 06:35:49;;;;;;;10.10;8.43;;;;;;;;;;4954460;28;20792;-74
2021/04/07 06:38:15;;;;;;;13.93;8.30;;;;;;;;;;4954248;28;20259;-73
2021/04/07 06:40:41;;;;;;;11.25;8.27;;;;;;;;;;4952649;28;20283;-73
2021/04/07 06:43:07;;;;;;;13.85;7.65;;;;;;;;;;4947766;28;20564;-74
2021/04/07 06:45:34;;;;;;;10.20;7.30;;;;;;;;;;4947503;28;20212;-74
2021/04/07 06:48:00;;;;;;;9.75;8.23;;;;;;;;;;4954374;28;20228;-73
2021/04/07 06:50:27;;;;;;;8.70;7.85;;;;;;;;;;4954053;28;20292;-73
2021/04/07 06:52:55;;;;;;;10.60;7.65;;;;;;;;;;4953619;28;20228;-73
2021/04/07 06:55:21;;;;;;;14.20;7.25;;;;;;;;;;4953768;28;20673;-73
2021/04/07 06:57:47;;;;;;;11.98;7.63;;;;;;;;;;4953883;28;20200;-73
2021/04/07 07:00:14;;;;;;;9.85;6.90;;;;;;;;;;4953668;28;20252;-73
2021/04/07 07:02:40;;;;;;;7.10;6.45;;;;;;;;;;4968713;28;20208;-74
2021/04/07 07:05:07;;;;;;;8.90;7.35;;;;;;;;;;4953947;28;20200;-73
2021/04/07 07:07:33;;;;;;;10.32;7.47;;;;;;;;;;4953775;28;20181;-74
2021/04/07 07:09:59;;;;;;;6.72;6.03;;;;;;;;;;4953133;28;20185;-74
2021/04/07 07:12:25;;;;;;;8.55;5.90;;;;;;;;;;4953473;28;20177;-73
2021/04/07 07:14:51;;;;;;;9.00;5.70;;;;;;;;;;4953726;28;20184;-74
2021/04/07 07:17:27;;;;;;;6.35;5.85;;;;;;;;;;4953454;28;20193;-74
2021/04/07 07:19:53;;;;;;;8.82;6.95;;;;;;;;;;4953610;28;20530;-74
2021/04/07 07:22:23;;;;;;;8.70;6.03;;;;;;;;;;4986363;22;20237;-73
2021/04/07 07:24:56;;;;;;;6.10;4.88;;;;;;;;;;4991076;28;20266;-73
2021/04/07 07:27:35;;;;;;;13.52;5.53;;;;;;;;;;4992043;28;20190;-73
2021/04/07 07:30:01;;;;;;;8.75;5.45;;;;;;;;;;4991036;28;20663;-74
2021/04/07 07:32:34;;;;;;;9.27;5.43;;;;;;;;;;4988622;28;20205;-73
2021/04/07 07:35:04;;;;;;;6.40;5.63;;;;;;;;;;4992132;28;20189;-74
2021/04/07 07:37:30;;;;;;;7.95;7.13;;;;;;;;;;4985602;28;20686;-74
2021/04/07 07:39:56;;;;;;;6.10;5.53;;;;;;;;;;4972869;28;20188;-73
2021/04/07 07:42:23;;;;;;;6.00;5.18;;;;;;;;;;4972443;28;20431;-73
2021/04/07 07:44:49;;;;;;;13.82;6.10;;;;;;;;;;4970136;28;20219;-72
2021/04/07 07:47:31;;;;;;;9.13;4.80;;;;;;;;;;4964124;28;20214;-74
2021/04/07 07:49:58;;;;;;;8.77;5.78;;;;;;;;;;4992175;28;20271;-72
2021/04/07 07:52:32;;;;;;;10.40;5.40;;;;;;;;;;4982658;28;20212;-73
2021/04/07 07:54:59;;;;;;;8.52;6.45;;;;;;;;;;4972881;28;20188;-72
2021/04/07 07:57:25;;;;;;;9.07;6.25;;;;;;;;;;4975432;28;20415;-73
2021/04/07 07:59:56;;;;;;;6.82;6.20;;;;;;;;;;4971985;28;20184;-73
2021/04/07 08:02:26;;;;;;;7.53;6.10;;;;;;;;;;4975047;28;20195;-73
2021/04/07 08:04:52;;;;;;;8.27;7.47;;;;;;;;;;4995977;28;20190;-72
2021/04/07 08:07:18;;;;;;;6.05;5.57;;;;;;;;;;4977666;28;20528;-73
2021/04/07 08:09:44;;;;;;;5.82;5.05;;;;;;;;;;4976512;28;20176;-73
2021/04/07 08:12:11;;;;;;;6.27;5.50;;;;;;;;;;4959410;28;20217;-73
2021/04/07 08:14:39;;;;;;;8.68;6.05;;;;;;;;;;4977599;28;20471;-73
2021/04/07 08:17:05;;;;;;;4.97;4.20;;;;;;;;;;4995795;28;20275;-73
2021/04/07 08:19:32;;;;;;;5.25;4.85;;;;;;;;;;4976879;28;20183;-73
2021/04/07 08:21:58;;;;;;;8.93;5.88;;;;;;;;;;4975748;28;20360;-74
2021/04/07 08:24:26;;;;;;;6.45;4.65;;;;;;;;;;4976036;28;20219;-73
2021/04/07 08:26:52;;;;;;;4.80;4.38;;;;;;;;;;4976277;28;20212;-73
2021/04/07 08:29:18;;;;;;;6.13;5.53;;;;;;;;;;4976122;28;20206;-72
2021/04/07 08:31:45;;;;;;;5.15;4.72;;;;;;;;;;4979008;28;20748;-73
2021/04/07 08:34:12;;;;;;;5.00;4.60;;;;;;;;;;4988658;28;20551;-73
2021/04/07 08:36:40;;;;;;;4.85;4.45;;;;;;;;;;4975595;28;20196;-73
2021/04/07 08:39:11;;;;;;;4.80;4.30;;;;;;;;;;4976202;28;20181;-73
2021/04/07 08:41:38;;;;;;;4.65;4.05;;;;;;;;;;4973610;28;20204;-74
2021/04/07 08:44:04;;;;;;;5.25;4.28;;;;;;;;;;4975461;28;20192;-74
2021/04/07 08:46:40;;;;;;;5.53;3.95;;;;;;;;;;4976200;28;20735;-73
2021/04/07 08:49:06;;;;;;;12.60;4.10;;;;;;;;;;4975655;28;20184;-73
2021/04/07 08:51:33;;;;;;;4.47;4.03;;;;;;;;;;4973719;28;20208;-73
2021/04/07 08:54:00;;;;;;;4.53;4.13;;;;;;;;;;4975277;28;20184;-74
2021/04/07 08:56:30;;;;;;;4.00;3.70;;;;;;;;;;4975327;28;20199;-73
2021/04/07 08:58:57;;;;;;;4.10;3.80;;;;;;;;;;4974710;28;20195;-73
2021/04/07 09:01:25;;;;;;;4.72;3.60;;;;;;;;;;4975259;28;20200;-71
2021/04/07 09:04:02;;;;;;;5.63;4.60;;;;;;;;;;4975536;28;20176;-74
2021/04/07 09:06:28;;;;;;;4.20;3.90;;;;;;;;;;4975409;28;20587;-71
2021/04/07 09:08:55;;;;;;;6.10;4.43;;;;;;;;;;4974221;28;20181;-73
2021/04/07 09:11:26;;;;;;;3.67;3.38;;;;;;;;;;4992970;28;20423;-73
2021/04/07 09:13:58;;;;;;;4.35;3.95;;;;;;;;;;4994601;28;20203;-73
2021/04/07 09:16:35;;;;;;;4.07;3.60;;;;;;;;;;4994712;28;20184;-73
2021/04/07 09:19:15;;;;;;;4.22;3.85;;;;;;;;;;4994770;28;20301;-74
2021/04/07 09:21:41;;;;;;;4.13;3.83;;;;;;;;;;4974729;28;20216;-73
2021/04/07 09:24:16;;;;;;;4.88;4.45;;;;;;;;;;4969499;28;20351;-74
2021/04/07 09:26:44;;;;;;;5.97;4.20;;;;;;;;;;4974931;28;20212;-73
2021/04/07 09:29:12;;;;;;;4.57;4.15;;;;;;;;;;4990809;28;20183;-73
2021/04/07 09:31:39;;;;;;;4.85;4.45;;;;;;;;;;4986459;28;20710;-73
2021/04/07 09:34:05;;;;;;;4.70;4.15;;;;;;;;;;4975145;28;20180;-73
2021/04/07 09:36:35;;;;;;;5.00;4.53;;;;;;;;;;4973537;28;20203;-73
2021/04/07 09:39:03;;;;;;;8.73;7.45;;;;;;;;;;4975005;28;20427;-73
2021/04/07 09:41:30;;;;;;;7.72;6.47;;;;;;;;;;4993901;28;20705;-73
2021/04/07 09:43:57;;;;;;;7.40;6.70;;;;;;;;;;4978302;28;20191;-73
2021/04/07 09:46:23;;;;;;;6.78;6.10;;;;;;;;;;4974785;28;20266;-74
2021/04/07 09:48:53;;;;;;;6.65;6.15;;;;;;;;;;4974817;28;20620;-73
2021/04/07 09:51:25;;;;;;;7.55;6.75;;;;;;;;;;4973483;28;20188;-73
2021/04/07 09:53:52;;;;;;;7.70;7.00;;;;;;;;;;4956292;28;20252;-72
2021/04/07 09:56:18;;;;;;;6.63;6.03;;;;;;;;;;4974419;28;20211;-73
2021/04/07 09:58:48;;;;;;;7.05;5.63;;;;;;;;;;4979225;28;20219;-73
2021/04/07 10:01:19;;;;;;;8.10;7.30;;;;;;;;;;4973282;28;20188;-73
2021/04/07 10:03:49;;;;;;;8.15;7.35;;;;;;;;;;4966416;28;20184;-73
2021/04/07 10:06:19;;;;;;;9.30;8.30;;;;;;;;;;4953834;28;20589;-73
2021/04/07 10:08:45;;;;;;;8.10;7.30;;;;;;;;;;4954949;28;20232;-74
2021/04/07 10:11:11;;;;;;;7.43;6.75;;;;;;;;;;4965433;28;20184;-73
2021/04/07 10:13:37;;;;;;;7.82;7.07;;;;;;;;;;4973638;28;20184;-73
2021/04/07 10:16:13;;;;;;;9.35;7.38;;;;;;;;;;4967817;28;20535;-73
2021/04/07 10:18:39;;;;;;;9.30;6.30;;;;;;;;;;4954564;28;20260;-73
2021/04/07 10:21:12;;;;;;;5.80;5.35;;;;;;;;;;4954681;28;20271;-74
2021/04/07 10:23:39;;;;;;;6.32;5.72;;;;;;;;;;4966695;28;20192;-74
2021/04/07 10:26:05;;;;;;;7.10;6.30;;;;;;;;;;4974765;28;20231;-73
2021/04/07 10:28:31;;;;;;;5.55;5.05;;;;;;;;;;4983349;28;20621;-73
2021/04/07 10:30:57;;;;;;;5.30;4.90;;;;;;;;;;4973575;28;20176;-73
2021/04/07 10:33:26;;;;;;;6.88;6.22;;;;;;;;;;4973664;28;20248;-72
2021/04/07 10:35:59;;;;;;;9.60;5.70;;;;;;;;;;4974327;28;20608;-73
2021/04/07 10:38:28;;;;;;;5.50;5.10;;;;;;;;;;4982220;28;20180;-73
2021/04/07 10:40:58;;;;;;;11.18;6.78;;;;;;;;;;4986689;28;20651;-73
2021/04/07 10:43:29;;;;;;;5.63;5.22;;;;;;;;;;4973416;28;20192;-72
2021/04/07 10:45:58;;;;;;;5.65;5.15;;;;;;;;;;4973325;28;20235;-72
2021/04/07 10:48:24;;;;;;;5.00;3.88;;;;;;;;;;4973574;28;20172;-72
2021/04/07 10:50:50;;;;;;;5.63;5.00;;;;;;;;;;4973502;28;20516;-72
2021/04/07 10:53:16;;;;;;;7.10;6.50;;;;;;;;;;4969147;28;20208;-72
2021/04/07 10:55:41;;;;;;;9.32;6.38;;;;;;;;;;4967931;28;20427;-73
2021/04/07 10:58:07;;;;;;;7.40;5.57;;;;;;;;;;4970746;28;20184;-72
2021/04/07 11:00:35;;;;;;;8.90;6.90;;;;;;;;;;4962548;28;20428;-72
2021/04/07 11:03:01;;;;;;;7.93;6.80;;;;;;;;;;4972973;28;20271;-73
2021/04/07 11:05:44;;;;;;;9.23;8.27;;;;;;;;;;4972963;28;20211;-72
2021/04/07 11:08:11;;;;;;;7.43;6.32;;;;;;;;;;4981582;28;20208;-73
2021/04/07 11:10:38;;;;;;;9.20;6.93;;;;;;;;;;4975321;28;20644;-72
2021/04/07 11:13:04;;;;;;;9.50;7.38;;;;;;;;;;4972691;28;20200;-73
2021/04/07 11:15:30;;;;;;;8.70;7.57;;;;;;;;;;4971566;28;20180;-72
2021/04/07 11:17:56;;;;;;;7.50;6.53;;;;;;;;;;4972970;28;20558;-72
2021/04/07 11:20:22;;;;;;;6.90;6.20;;;;;;;;;;4973059;28;20444;-73
2021/04/07 11:22:49;;;;;;;9.77;8.77;;;;;;;;;;4972099;28;20473;-72
2021/04/07 11:25:15;;;;;;;16.33;8.63;;;;;;;;;;4973144;28;20212;-72
2021/04/07 11:27:41;;;;;;;12.18;8.60;;;;;;;;;;4972993;28;20172;-72
2021/04/07 11:30:08;;;;;;;21.35;9.50;;;;;;;;;;4988009;28;20176;-72
2021/04/07 11:32:37;;;;;;;7.82;6.30;;;;;;;;;;4971553;28;20203;-72
2021/04/07 11:37:46;;;;;;;10.30;7.60;;;;;;;;;;4973122;28;20651;-72
2021/04/07 11:40:22;;;;;;;7.72;7.03;;;;;;;;;;4973528;28;20196;-72
2021/04/07 11:43:13;;;;;;;13.95;8.73;;;;;;;;;;4972627;28;20219;-74
2021/04/07 11:45:34;;;;;;;9.38;6.78;;;;;;;;;;4959264;28;20216;-73
2021/04/07 11:48:00;;;;;;;8.83;6.03;;;;;;;;;;4972690;28;20594;-74
2021/04/07 11:50:27;;;;;;;10.18;6.50;;;;;;;;;;4972043;28;20483;-73
2021/04/07 11:52:52;;;;;;;7.07;6.38;;;;;;;;;;4972367;28;20211;-73
2021/04/07 11:55:18;;;;;;;11.03;7.63;;;;;;;;;;4968088;28;20185;-73
2021/04/07 11:57:44;;;;;;;9.00;6.57;;;;;;;;;;4953491;28;20420;-72
2021/04/07 12:00:11;;;;;;;11.68;5.95;;;;;;;;;;4953253;28;20659;-73
2021/04/07 12:02:42;;;;;;;9.88;6.35;;;;;;;;;;4967567;28;20215;-74
2021/04/07 12:05:08;;;;;;;17.98;6.95;;;;;;;;;;4970970;28;20226;-73
2021/04/07 12:07:34;;;;;;;8.02;6.07;;;;;;;;;;4972642;28;20214;-72
2021/04/07 12:10:00;;;;;;;7.93;5.57;;;;;;;;;;4972511;28;20554;-73
2021/04/07 12:12:26;;;;;;;7.47;5.73;;;;;;;;;;4972331;28;20946;-73
2021/04/07 12:14:52;;;;;;;6.18;5.57;;;;;;;;;;4972343;28;20426;-73
2021/04/07 12:17:18;;;;;;;6.80;5.60;;;;;;;;;;4972603;28;20177;-73
2021/04/07 12:19:43;;;;;;;8.25;5.55;;;;;;;;;;4972620;28;20478;-74
2021/04/07 12:22:12;;;;;;;8.90;5.70;;;;;;;;;;4971458;28;20216;-73
2021/04/07 12:24:38;;;;;;;11.55;6.15;;;;;;;;;;4973331;28;20424;-73
2021/04/07 12:27:04;;;;;;;11.57;5.90;;;;;;;;;;4974397;28;20570;-73
2021/04/07 12:29:30;;;;;;;18.30;8.75;;;;;;;;;;4991853;28;20410;-73
2021/04/07 12:31:56;;;;;;;11.25;7.03;;;;;;;;;;4991686;28;20195;-73
2021/04/07 12:34:22;;;;;;;12.00;7.87;;;;;;;;;;4982007;28;20234;-74
2021/04/07 12:36:48;;;;;;;13.52;7.72;;;;;;;;;;4972301;28;20427;-73
2021/04/07 12:39:14;;;;;;;20.63;7.63;;;;;;;;;;4974722;28;20188;-73
2021/04/07 12:44:35;;;;;;;13.23;7.22;;;;;;;;;;4978448;28;20393;-73
2021/04/07 12:47:01;;;;;;;7.77;6.50;;;;;;;;;;4975996;28;20752;-73
2021/04/07 12:49:27;;;;;;;11.20;6.73;;;;;;;;;;4976037;28;20434;-72
2021/04/07 12:51:53;;;;;;;9.80;6.87;;;;;;;;;;4975402;28;20950;-72
2021/04/07 12:54:19;;;;;;;19.63;7.30;;;;;;;;;;4977889;28;20422;-71
2021/04/07 12:56:45;;;;;;;10.03;7.60;;;;;;;;;;4976677;28;20793;-72
2021/04/07 12:59:11;;;;;;;13.10;6.93;;;;;;;;;;4975671;28;20818;-73
2021/04/07 13:01:37;;;;;;;12.13;7.93;;;;;;;;;;4975087;28;20446;-74
2021/04/07 13:04:03;;;;;;;5.13;4.63;;;;;;;;;;4973712;28;20192;-74
2021/04/07 13:06:29;;;;;;;8.75;5.40;;;;;;;;;;4975466;28;20989;-73
2021/04/07 13:08:55;;;;;;;11.50;5.60;;;;;;;;;;4977309;28;20183;-74
2021/04/07 13:11:21;;;;;;;7.78;4.53;;;;;;;;;;4994718;28;20434;-73
2021/04/07 13:13:46;;;;;;;7.50;4.30;;;;;;;;;;4994594;28;20175;-73
2021/04/07 13:16:14;;;;;;;4.77;4.00;;;;;;;;;;4994567;28;20547;-73
2021/04/07 13:18:40;;;;;;;8.90;4.60;;;;;;;;;;4991655;28;20432;-73
2021/04/07 13:21:10;;;;;;;11.48;4.25;;;;;;;;;;4974739;28;20208;-74
2021/04/07 13:23:37;;;;;;;4.88;3.53;;;;;;;;;;5008237;22;20310;-71
2021/04/07 13:26:03;;;;;;;10.52;4.95;;;;;;;;;;4985436;28;20207;-71
2021/04/07 13:28:29;;;;;;;9.93;4.70;;;;;;;;;;4984211;28;20177;-72
2021/04/07 13:30:56;;;;;;;15.32;5.30;;;;;;;;;;4974894;28;20180;-70
2021/04/07 13:33:30;;;;;;;9.95;4.55;;;;;;;;;;4991443;28;20295;-71
2021/04/07 13:35:59;;;;;;;8.52;4.68;;;;;;;;;;4993155;28;20815;-71
2021/04/07 13:43:45;;;;;;;11.77;3.65;;;;;;;;;;4976391;28;20251;-71
2021/04/07 13:46:11;;;;;;;9.73;5.25;;;;;;;;;;4994155;28;20278;-71
2021/04/07 13:48:38;;;;;;;9.00;5.10;;;;;;;;;;4994165;28;20190;-71
2021/04/07 13:51:04;;;;;;;7.65;4.82;;;;;;;;;;4994046;28;20235;-71
2021/04/07 13:53:30;;;;;;;7.93;4.05;;;;;;;;;;4991222;28;20270;-72
2021/04/07 13:55:57;;;;;;;5.67;4.10;;;;;;;;;;4974647;28;20653;-71
2021/04/07 13:58:23;;;;;;;10.15;5.35;;;;;;;;;;4975052;28;20842;-71
2021/04/07 14:00:51;;;;;;;5.38;3.40;;;;;;;;;;4993741;28;20194;-71
2021/04/07 14:03:17;;;;;;;5.97;4.32;;;;;;;;;;4990533;28;20207;-71
2021/04/07 14:05:43;;;;;;;13.20;4.30;;;;;;;;;;4990562;28;20593;-71
2021/04/07 14:08:10;;;;;;;4.38;3.58;;;;;;;;;;4988752;28;20447;-71
2021/04/07 14:10:39;;;;;;;9.50;4.70;;;;;;;;;;4982427;28;20175;-71
2021/04/07 14:13:09;;;;;;;8.48;3.85;;;;;;;;;;4979588;28;20204;-71
2021/04/07 14:15:35;;;;;;;7.75;3.38;;;;;;;;;;4982498;28;20212;-71
2021/04/07 14:18:01;;;;;;;9.13;2.63;;;;;;;;;;4993610;28;20183;-72
2021/04/07 14:20:27;;;;;;;13.00;3.40;;;;;;;;;;4990026;28;20191;-70
2021/04/07 14:22:53;;;;;;;7.30;2.53;;;;;;;;;;4973347;28;20514;-71
2021/04/07 14:25:21;;;;;;;10.48;3.38;;;;;;;;;;4992816;28;20462;-72
2021/04/07 14:27:47;;;;;;;7.05;2.78;;;;;;;;;;4992254;28;20180;-70
2021/04/07 14:30:14;;;;;;;7.43;2.75;;;;;;;;;;4979936;28;20168;-69
2021/04/07 14:32:40;;;;;;;4.95;3.17;;;;;;;;;;4989161;28;20219;-70
2021/04/07 14:35:06;;;;;;;7.20;2.30;;;;;;;;;;4991762;28;20179;-69
2021/04/07 14:37:32;;;;;;;4.93;1.95;;;;;;;;;;4993202;28;20422;-70
2021/04/07 14:39:58;;;;;;;3.97;2.40;;;;;;;;;;4975933;28;20176;-73
2021/04/07 14:42:24;;;;;;;4.70;2.50;;;;;;;;;;4974221;28;20227;-70
2021/04/07 14:44:51;;;;;;;7.78;2.28;;;;;;;;;;4992829;28;20643;-69
2021/04/07 14:47:17;;;;;;;6.22;2.42;;;;;;;;;;4978213;28;20275;-69